sensor_id;sensor_type;location;lat;lon;timestamp;temperature;humidity
33093;DHT22;19456;46.104;12.908;2024-02-23T00:02:14;8.80;99.90
33093;DHT22;19456;46.104;12.908;2024-02-23T00:04:39;8.90;99.90
33093;DHT22;19456;46.104;12.908;2024-02-23T00:07:05;8.80;99.90
33093;DHT22;19456;46.104;12.908;2024-02-23T00:09:30;8.80;99.90
33093;DHT22;19456;46.104;12.908;2024-02-23T00:11:56;8.80;99.90
33093;DHT22;19456;46.104;12.908;2024-02-23T00:14:21;8.80;99.90
33093;DHT22;19456;46.104;12.908;2024-02-23T00:16:47;8.80;99.90
33093;DHT22;19456;46.104;12.908;2024-02-23T00:19:13;8.90;99.90
33093;DHT22;19456;46.104;12.908;2024-02-23T00:21:38;9.00;99.90
33093;DHT22;19456;46.104;12.908;2024-02-23T00:24:05;9.00;99.90
33093;DHT22;19456;46.104;12.908;2024-02-23T00:26:31;9.00;99.90
33093;DHT22;19456;46.104;12.908;2024-02-23T00:28:57;9.10;99.90
33093;DHT22;19456;46.104;12.908;2024-02-23T00:31:22;9.10;99.90
33093;DHT22;19456;46.104;12.908;2024-02-23T00:33:48;9.10;99.90
33093;DHT22;19456;46.104;12.908;2024-02-23T00:36:14;9.10;99.90
33093;DHT22;19456;46.104;12.908;2024-02-23T00:38:39;9.10;99.90
33093;DHT22;19456;46.104;12.908;2024-02-23T00:41:05;9.10;99.90
33093;DHT22;19456;46.104;12.908;2024-02-23T00:43:38;9.10;99.90
33093;DHT22;19456;46.104;12.908;2024-02-23T00:46:04;9.10;99.90
33093;DHT22;19456;46.104;12.908;2024-02-23T00:48:30;9.10;99.90
33093;DHT22;19456;46.104;12.908;2024-02-23T00:50:55;9.10;99.90
33093;DHT22;19456;46.104;12.908;2024-02-23T00:53:21;9.10;99.90
33093;DHT22;19456;46.104;12.908;2024-02-23T00:55:48;9.10;99.90
33093;DHT22;19456;46.104;12.908;2024-02-23T00:58:14;9.10;99.90
33093;DHT22;19456;46.104;12.908;2024-02-23T01:00:41;9.10;99.90
33093;DHT22;19456;46.104;12.908;2024-02-23T01:03:07;9.10;99.90
33093;DHT22;19456;46.104;12.908;2024-02-23T01:05:32;9.20;99.90
33093;DHT22;19456;46.104;12.908;2024-02-23T01:07:58;9.10;99.90
33093;DHT22;19456;46.104;12.908;2024-02-23T01:10:23;9.20;99.90
33093;DHT22;19456;46.104;12.908;2024-02-23T01:12:49;9.10;99.90
33093;DHT22;19456;46.104;12.908;2024-02-23T01:15:15;9.10;99.90
33093;DHT22;19456;46.104;12.908;2024-02-23T01:17:40;9.10;99.90
33093;DHT22;19456;46.104;12.908;2024-02-23T01:20:06;9.10;99.90
33093;DHT22;19456;46.104;12.908;2024-02-23T01:22:32;9.20;99.90
33093;DHT22;19456;46.104;12.908;2024-02-23T01:24:57;9.20;99.90
33093;DHT22;19456;46.104;12.908;2024-02-23T01:27:23;9.10;99.90
33093;DHT22;19456;46.104;12.908;2024-02-23T01:29:48;9.20;99.90
33093;DHT22;19456;46.104;12.908;2024-02-23T01:32:14;9.20;99.90
33093;DHT22;19456;46.104;12.908;2024-02-23T01:34:40;9.20;99.90
33093;DHT22;19456;46.104;12.908;2024-02-23T01:37:05;9.20;99.90
33093;DHT22;19456;46.104;12.908;2024-02-23T01:39:31;9.10;99.90
33093;DHT22;19456;46.104;12.908;2024-02-23T01:41:56;9.10;99.90
33093;DHT22;19456;46.104;12.908;2024-02-23T01:44:22;9.10;99.90
33093;DHT22;19456;46.104;12.908;2024-02-23T01:46:48;9.10;99.90
33093;DHT22;19456;46.104;12.908;2024-02-23T01:49:13;9.10;99.90
33093;DHT22;19456;46.104;12.908;2024-02-23T01:51:39;9.10;99.90
33093;DHT22;19456;46.104;12.908;2024-02-23T01:54:05;9.00;99.90
33093;DHT22;19456;46.104;12.908;2024-02-23T01:56:31;9.00;99.90
33093;DHT22;19456;46.104;12.908;2024-02-23T01:58:57;9.10;99.90
33093;DHT22;19456;46.104;12.908;2024-02-23T02:01:23;9.00;99.90
33093;DHT22;19456;46.104;12.908;2024-02-23T02:03:50;9.00;99.90
33093;DHT22;19456;46.104;12.908;2024-02-23T02:06:15;9.00;99.90
33093;DHT22;19456;46.104;12.908;2024-02-23T02:08:41;9.00;99.90
33093;DHT22;19456;46.104;12.908;2024-02-23T02:11:07;9.10;99.90
33093;DHT22;19456;46.104;12.908;2024-02-23T02:13:32;9.10;99.90
33093;DHT22;19456;46.104;12.908;2024-02-23T02:15:59;9.00;99.90
33093;DHT22;19456;46.104;12.908;2024-02-23T02:18:25;9.10;99.90
33093;DHT22;19456;46.104;12.908;2024-02-23T02:20:52;9.10;99.90
33093;DHT22;19456;46.104;12.908;2024-02-23T02:23:19;9.00;99.90
33093;DHT22;19456;46.104;12.908;2024-02-23T02:25:44;9.00;99.90
33093;DHT22;19456;46.104;12.908;2024-02-23T02:28:10;9.10;99.90
33093;DHT22;19456;46.104;12.908;2024-02-23T02:30:35;9.10;99.90
33093;DHT22;19456;46.104;12.908;2024-02-23T02:33:01;9.10;99.90
33093;DHT22;19456;46.104;12.908;2024-02-23T02:35:26;9.10;99.90
33093;DHT22;19456;46.104;12.908;2024-02-23T02:37:52;9.00;99.90
33093;DHT22;19456;46.104;12.908;2024-02-23T02:40:18;9.10;99.90
33093;DHT22;19456;46.104;12.908;2024-02-23T02:42:43;9.10;99.90
33093;DHT22;19456;46.104;12.908;2024-02-23T02:45:09;9.00;99.90
33093;DHT22;19456;46.104;12.908;2024-02-23T02:47:35;9.10;99.90
33093;DHT22;19456;46.104;12.908;2024-02-23T02:50:01;9.10;99.90
33093;DHT22;19456;46.104;12.908;2024-02-23T02:52:27;9.20;99.90
33093;DHT22;19456;46.104;12.908;2024-02-23T02:54:53;9.20;99.90
33093;DHT22;19456;46.104;12.908;2024-02-23T02:57:19;9.20;99.90
33093;DHT22;19456;46.104;12.908;2024-02-23T02:59:45;9.20;99.90
33093;DHT22;19456;46.104;12.908;2024-02-23T03:02:11;9.30;99.90
33093;DHT22;19456;46.104;12.908;2024-02-23T03:04:37;9.30;99.90
33093;DHT22;19456;46.104;12.908;2024-02-23T03:07:02;9.30;99.90
33093;DHT22;19456;46.104;12.908;2024-02-23T03:09:28;9.20;99.90
33093;DHT22;19456;46.104;12.908;2024-02-23T03:11:54;9.30;99.90
33093;DHT22;19456;46.104;12.908;2024-02-23T03:14:19;9.30;99.90
33093;DHT22;19456;46.104;12.908;2024-02-23T03:16:46;9.30;99.90
33093;DHT22;19456;46.104;12.908;2024-02-23T03:19:13;9.30;99.90
33093;DHT22;19456;46.104;12.908;2024-02-23T03:21:38;9.30;99.90
33093;DHT22;19456;46.104;12.908;2024-02-23T03:24:04;9.40;99.90
33093;DHT22;19456;46.104;12.908;2024-02-23T03:26:29;9.40;99.90
33093;DHT22;19456;46.104;12.908;2024-02-23T03:28:55;9.30;99.90
33093;DHT22;19456;46.104;12.908;2024-02-23T03:31:20;9.30;99.90
33093;DHT22;19456;46.104;12.908;2024-02-23T03:33:46;9.30;99.90
33093;DHT22;19456;46.104;12.908;2024-02-23T03:36:11;9.30;99.90
33093;DHT22;19456;46.104;12.908;2024-02-23T03:38:37;9.40;99.90
33093;DHT22;19456;46.104;12.908;2024-02-23T03:41:03;9.30;99.90
33093;DHT22;19456;46.104;12.908;2024-02-23T03:43:28;9.30;99.90
33093;DHT22;19456;46.104;12.908;2024-02-23T03:45:54;9.20;99.90
33093;DHT22;19456;46.104;12.908;2024-02-23T03:48:19;9.30;99.90
33093;DHT22;19456;46.104;12.908;2024-02-23T03:50:45;9.20;99.90
33093;DHT22;19456;46.104;12.908;2024-02-23T03:53:11;9.30;99.90
33093;DHT22;19456;46.104;12.908;2024-02-23T03:55:36;9.30;99.90
33093;DHT22;19456;46.104;12.908;2024-02-23T03:58:02;9.20;99.90
33093;DHT22;19456;46.104;12.908;2024-02-23T04:00:28;9.20;99.90
33093;DHT22;19456;46.104;12.908;2024-02-23T04:02:53;9.20;99.90
33093;DHT22;19456;46.104;12.908;2024-02-23T04:05:19;9.20;99.90
33093;DHT22;19456;46.104;12.908;2024-02-23T04:07:45;9.20;99.90
33093;DHT22;19456;46.104;12.908;2024-02-23T04:10:10;9.20;99.90
33093;DHT22;19456;46.104;12.908;2024-02-23T04:12:36;9.10;99.90
33093;DHT22;19456;46.104;12.908;2024-02-23T04:15:01;9.10;99.90
33093;DHT22;19456;46.104;12.908;2024-02-23T04:17:27;9.10;99.90
33093;DHT22;19456;46.104;12.908;2024-02-23T04:19:52;9.10;99.90
33093;DHT22;19456;46.104;12.908;2024-02-23T04:22:18;9.10;99.90
33093;DHT22;19456;46.104;12.908;2024-02-23T04:24:44;9.00;99.90
33093;DHT22;19456;46.104;12.908;2024-02-23T04:27:09;9.10;99.90
33093;DHT22;19456;46.104;12.908;2024-02-23T04:29:35;9.10;99.90
33093;DHT22;19456;46.104;12.908;2024-02-23T04:32:01;9.10;99.90
33093;DHT22;19456;46.104;12.908;2024-02-23T04:34:27;9.10;99.90
33093;DHT22;19456;46.104;12.908;2024-02-23T04:36:52;9.10;99.90
33093;DHT22;19456;46.104;12.908;2024-02-23T04:39:18;9.10;99.90
33093;DHT22;19456;46.104;12.908;2024-02-23T04:41:44;9.10;99.90
33093;DHT22;19456;46.104;12.908;2024-02-23T04:44:09;9.00;99.90
33093;DHT22;19456;46.104;12.908;2024-02-23T04:46:35;9.10;99.90
33093;DHT22;19456;46.104;12.908;2024-02-23T04:49:01;9.10;99.90
33093;DHT22;19456;46.104;12.908;2024-02-23T04:51:26;9.10;99.90
33093;DHT22;19456;46.104;12.908;2024-02-23T04:53:52;9.10;99.90
33093;DHT22;19456;46.104;12.908;2024-02-23T04:56:18;9.10;99.90
33093;DHT22;19456;46.104;12.908;2024-02-23T04:58:44;9.10;99.90
33093;DHT22;19456;46.104;12.908;2024-02-23T05:01:10;9.10;99.90
33093;DHT22;19456;46.104;12.908;2024-02-23T05:03:36;9.20;99.90
33093;DHT22;19456;46.104;12.908;2024-02-23T05:06:04;9.20;99.90
33093;DHT22;19456;46.104;12.908;2024-02-23T05:08:30;9.20;99.90
33093;DHT22;19456;46.104;12.908;2024-02-23T05:10:56;9.10;99.90
33093;DHT22;19456;46.104;12.908;2024-02-23T05:13:22;9.10;99.90
33093;DHT22;19456;46.104;12.908;2024-02-23T05:15:47;9.20;99.90
33093;DHT22;19456;46.104;12.908;2024-02-23T05:18:13;9.20;99.90
33093;DHT22;19456;46.104;12.908;2024-02-23T05:20:38;9.20;99.90
33093;DHT22;19456;46.104;12.908;2024-02-23T05:23:04;9.20;99.90
33093;DHT22;19456;46.104;12.908;2024-02-23T05:25:30;9.20;99.90
33093;DHT22;19456;46.104;12.908;2024-02-23T05:27:55;9.10;99.90
33093;DHT22;19456;46.104;12.908;2024-02-23T05:30:21;9.20;99.90
33093;DHT22;19456;46.104;12.908;2024-02-23T05:32:47;9.20;99.90
33093;DHT22;19456;46.104;12.908;2024-02-23T05:35:13;9.30;99.90
33093;DHT22;19456;46.104;12.908;2024-02-23T05:37:38;9.30;99.90
33093;DHT22;19456;46.104;12.908;2024-02-23T05:40:04;9.30;99.90
33093;DHT22;19456;46.104;12.908;2024-02-23T05:42:38;9.30;99.90
33093;DHT22;19456;46.104;12.908;2024-02-23T05:45:04;9.30;99.90
33093;DHT22;19456;46.104;12.908;2024-02-23T05:47:30;9.30;99.90
33093;DHT22;19456;46.104;12.908;2024-02-23T05:49:56;9.40;99.90
33093;DHT22;19456;46.104;12.908;2024-02-23T05:52:22;9.50;99.90
33093;DHT22;19456;46.104;12.908;2024-02-23T05:54:49;9.50;99.90
33093;DHT22;19456;46.104;12.908;2024-02-23T05:57:17;9.40;99.90
33093;DHT22;19456;46.104;12.908;2024-02-23T05:59:42;9.50;99.90
33093;DHT22;19456;46.104;12.908;2024-02-23T06:02:08;9.50;99.90
33093;DHT22;19456;46.104;12.908;2024-02-23T06:04:35;9.50;99.90
33093;DHT22;19456;46.104;12.908;2024-02-23T06:07:00;9.50;99.90
33093;DHT22;19456;46.104;12.908;2024-02-23T06:09:26;9.50;99.90
33093;DHT22;19456;46.104;12.908;2024-02-23T06:11:54;9.40;99.90
33093;DHT22;19456;46.104;12.908;2024-02-23T06:14:20;9.50;99.90
33093;DHT22;19456;46.104;12.908;2024-02-23T06:16:45;9.30;99.90
33093;DHT22;19456;46.104;12.908;2024-02-23T06:19:11;9.30;99.90
33093;DHT22;19456;46.104;12.908;2024-02-23T06:21:37;9.20;99.90
33093;DHT22;19456;46.104;12.908;2024-02-23T06:24:02;9.20;99.90
33093;DHT22;19456;46.104;12.908;2024-02-23T06:26:28;9.30;99.90
33093;DHT22;19456;46.104;12.908;2024-02-23T06:28:54;9.30;99.90
33093;DHT22;19456;46.104;12.908;2024-02-23T06:31:19;9.40;99.90
33093;DHT22;19456;46.104;12.908;2024-02-23T06:33:46;9.40;99.90
33093;DHT22;19456;46.104;12.908;2024-02-23T06:36:14;9.40;99.90
33093;DHT22;19456;46.104;12.908;2024-02-23T06:38:39;9.40;99.90
33093;DHT22;19456;46.104;12.908;2024-02-23T06:41:05;9.50;99.90
33093;DHT22;19456;46.104;12.908;2024-02-23T06:43:31;9.50;99.90
33093;DHT22;19456;46.104;12.908;2024-02-23T06:45:56;9.50;99.90
33093;DHT22;19456;46.104;12.908;2024-02-23T06:48:23;9.50;99.90
33093;DHT22;19456;46.104;12.908;2024-02-23T06:50:50;9.50;99.90
33093;DHT22;19456;46.104;12.908;2024-02-23T06:53:19;9.50;99.90
33093;DHT22;19456;46.104;12.908;2024-02-23T06:55:47;9.50;99.90
33093;DHT22;19456;46.104;12.908;2024-02-23T06:58:13;9.60;99.90
33093;DHT22;19456;46.104;12.908;2024-02-23T07:00:40;9.60;99.90
33093;DHT22;19456;46.104;12.908;2024-02-23T07:03:05;9.70;99.90
33093;DHT22;19456;46.104;12.908;2024-02-23T07:05:35;9.70;99.90
33093;DHT22;19456;46.104;12.908;2024-02-23T07:08:04;9.70;99.90
33093;DHT22;19456;46.104;12.908;2024-02-23T07:10:41;9.70;99.90
33093;DHT22;19456;46.104;12.908;2024-02-23T07:13:14;9.70;99.90
33093;DHT22;19456;46.104;12.908;2024-02-23T07:15:39;9.70;99.90
33093;DHT22;19456;46.104;12.908;2024-02-23T07:18:05;9.70;99.90
33093;DHT22;19456;46.104;12.908;2024-02-23T07:20:36;9.60;99.90
33093;DHT22;19456;46.104;12.908;2024-02-23T07:23:03;9.60;99.90
33093;DHT22;19456;46.104;12.908;2024-02-23T07:25:32;9.60;99.90
33093;DHT22;19456;46.104;12.908;2024-02-23T07:27:58;9.60;99.90
33093;DHT22;19456;46.104;12.908;2024-02-23T07:30:24;9.60;99.90
33093;DHT22;19456;46.104;12.908;2024-02-23T07:32:51;9.60;99.90
33093;DHT22;19456;46.104;12.908;2024-02-23T07:35:20;9.50;99.90
33093;DHT22;19456;46.104;12.908;2024-02-23T07:37:45;9.50;99.90
33093;DHT22;19456;46.104;12.908;2024-02-23T07:40:12;9.50;99.90
33093;DHT22;19456;46.104;12.908;2024-02-23T07:42:38;9.50;99.90
33093;DHT22;19456;46.104;12.908;2024-02-23T07:45:28;9.50;99.90
33093;DHT22;19456;46.104;12.908;2024-02-23T07:47:55;9.50;99.90
33093;DHT22;19456;46.104;12.908;2024-02-23T07:50:20;9.50;99.90
33093;DHT22;19456;46.104;12.908;2024-02-23T07:52:46;9.50;99.90
33093;DHT22;19456;46.104;12.908;2024-02-23T07:55:11;9.50;99.90
33093;DHT22;19456;46.104;12.908;2024-02-23T07:57:37;9.50;99.90
33093;DHT22;19456;46.104;12.908;2024-02-23T08:00:05;9.50;99.90
33093;DHT22;19456;46.104;12.908;2024-02-23T08:02:33;9.50;99.90
33093;DHT22;19456;46.104;12.908;2024-02-23T08:05:00;9.50;99.90
33093;DHT22;19456;46.104;12.908;2024-02-23T08:07:26;9.50;99.90
33093;DHT22;19456;46.104;12.908;2024-02-23T08:09:53;9.50;99.90
33093;DHT22;19456;46.104;12.908;2024-02-23T08:12:19;9.50;99.90
33093;DHT22;19456;46.104;12.908;2024-02-23T08:14:45;9.50;99.90
33093;DHT22;19456;46.104;12.908;2024-02-23T08:17:11;9.40;99.90
33093;DHT22;19456;46.104;12.908;2024-02-23T08:19:37;9.50;99.90
33093;DHT22;19456;46.104;12.908;2024-02-23T08:22:03;9.50;99.90
33093;DHT22;19456;46.104;12.908;2024-02-23T08:24:31;9.50;99.90
33093;DHT22;19456;46.104;12.908;2024-02-23T08:26:57;9.50;99.90
33093;DHT22;19456;46.104;12.908;2024-02-23T08:29:26;9.50;99.90
33093;DHT22;19456;46.104;12.908;2024-02-23T08:31:52;9.50;99.90
33093;DHT22;19456;46.104;12.908;2024-02-23T08:34:18;9.50;99.90
33093;DHT22;19456;46.104;12.908;2024-02-23T08:36:43;9.50;99.90
33093;DHT22;19456;46.104;12.908;2024-02-23T08:39:09;9.60;99.90
33093;DHT22;19456;46.104;12.908;2024-02-23T08:41:35;9.60;99.90
33093;DHT22;19456;46.104;12.908;2024-02-23T08:44:01;9.60;99.90
33093;DHT22;19456;46.104;12.908;2024-02-23T08:46:26;9.60;99.90
33093;DHT22;19456;46.104;12.908;2024-02-23T08:48:55;9.60;99.90
33093;DHT22;19456;46.104;12.908;2024-02-23T08:51:21;9.60;99.90
33093;DHT22;19456;46.104;12.908;2024-02-23T08:53:46;9.60;99.90
33093;DHT22;19456;46.104;12.908;2024-02-23T08:56:12;9.60;99.90
33093;DHT22;19456;46.104;12.908;2024-02-23T08:58:38;9.60;99.90
33093;DHT22;19456;46.104;12.908;2024-02-23T09:01:03;9.60;99.90
33093;DHT22;19456;46.104;12.908;2024-02-23T09:03:30;9.60;99.90
33093;DHT22;19456;46.104;12.908;2024-02-23T09:05:55;9.60;99.90
33093;DHT22;19456;46.104;12.908;2024-02-23T09:08:25;9.60;99.90
33093;DHT22;19456;46.104;12.908;2024-02-23T09:10:54;9.70;99.90
33093;DHT22;19456;46.104;12.908;2024-02-23T09:13:19;9.80;99.90
33093;DHT22;19456;46.104;12.908;2024-02-23T09:15:46;9.80;99.90
33093;DHT22;19456;46.104;12.908;2024-02-23T09:18:12;9.80;99.90
33093;DHT22;19456;46.104;12.908;2024-02-23T09:20:37;9.80;99.90
33093;DHT22;19456;46.104;12.908;2024-02-23T09:23:03;9.80;99.90
33093;DHT22;19456;46.104;12.908;2024-02-23T09:25:29;9.80;99.90
33093;DHT22;19456;46.104;12.908;2024-02-23T09:27:58;9.90;99.90
33093;DHT22;19456;46.104;12.908;2024-02-23T09:30:24;9.80;99.90
33093;DHT22;19456;46.104;12.908;2024-02-23T09:32:49;9.90;99.90
33093;DHT22;19456;46.104;12.908;2024-02-23T09:35:15;9.90;99.90
33093;DHT22;19456;46.104;12.908;2024-02-23T09:37:40;9.90;99.90
33093;DHT22;19456;46.104;12.908;2024-02-23T09:40:07;9.90;99.90
33093;DHT22;19456;46.104;12.908;2024-02-23T09:42:32;9.90;99.90
33093;DHT22;19456;46.104;12.908;2024-02-23T09:44:59;10.00;99.90
33093;DHT22;19456;46.104;12.908;2024-02-23T09:47:28;9.90;99.90
33093;DHT22;19456;46.104;12.908;2024-02-23T09:49:54;9.90;99.90
33093;DHT22;19456;46.104;12.908;2024-02-23T09:52:26;9.80;99.90
33093;DHT22;19456;46.104;12.908;2024-02-23T09:54:54;9.70;99.90
33093;DHT22;19456;46.104;12.908;2024-02-23T09:57:21;9.60;99.90
33093;DHT22;19456;46.104;12.908;2024-02-23T09:59:48;9.60;99.90
33093;DHT22;19456;46.104;12.908;2024-02-23T10:02:16;9.60;99.90
33093;DHT22;19456;46.104;12.908;2024-02-23T10:04:42;9.60;99.90
33093;DHT22;19456;46.104;12.908;2024-02-23T10:07:14;9.50;99.90
33093;DHT22;19456;46.104;12.908;2024-02-23T10:09:41;9.60;99.90
33093;DHT22;19456;46.104;12.908;2024-02-23T10:12:07;9.70;99.90
33093;DHT22;19456;46.104;12.908;2024-02-23T10:14:32;9.70;99.90
33093;DHT22;19456;46.104;12.908;2024-02-23T10:16:58;9.80;99.90
33093;DHT22;19456;46.104;12.908;2024-02-23T10:19:27;9.90;99.90
33093;DHT22;19456;46.104;12.908;2024-02-23T10:21:55;9.90;99.90
33093;DHT22;19456;46.104;12.908;2024-02-23T10:24:22;9.90;99.90
33093;DHT22;19456;46.104;12.908;2024-02-23T10:26:48;9.90;99.90
33093;DHT22;19456;46.104;12.908;2024-02-23T10:29:16;9.90;99.90
33093;DHT22;19456;46.104;12.908;2024-02-23T10:31:55;9.90;99.90
33093;DHT22;19456;46.104;12.908;2024-02-23T10:34:33;9.90;99.90
33093;DHT22;19456;46.104;12.908;2024-02-23T10:37:01;9.90;99.90
33093;DHT22;19456;46.104;12.908;2024-02-23T10:39:30;9.90;99.90
33093;DHT22;19456;46.104;12.908;2024-02-23T10:42:09;9.90;99.90
33093;DHT22;19456;46.104;12.908;2024-02-23T10:44:35;9.90;99.90
33093;DHT22;19456;46.104;12.908;2024-02-23T10:47:02;9.80;99.90
33093;DHT22;19456;46.104;12.908;2024-02-23T10:49:31;9.70;99.90
33093;DHT22;19456;46.104;12.908;2024-02-23T10:52:03;9.70;99.90
33093;DHT22;19456;46.104;12.908;2024-02-23T10:54:39;9.60;99.90
33093;DHT22;19456;46.104;12.908;2024-02-23T10:57:11;9.60;99.90
33093;DHT22;19456;46.104;12.908;2024-02-23T10:59:44;9.70;99.90
33093;DHT22;19456;46.104;12.908;2024-02-23T11:02:10;9.70;99.90
33093;DHT22;19456;46.104;12.908;2024-02-23T11:04:35;9.80;99.90
33093;DHT22;19456;46.104;12.908;2024-02-23T11:07:01;9.90;99.90
33093;DHT22;19456;46.104;12.908;2024-02-23T11:09:32;10.00;99.90
33093;DHT22;19456;46.104;12.908;2024-02-23T11:11:58;10.10;99.90
33093;DHT22;19456;46.104;12.908;2024-02-23T11:14:34;10.10;99.90
33093;DHT22;19456;46.104;12.908;2024-02-23T11:17:00;10.10;99.90
33093;DHT22;19456;46.104;12.908;2024-02-23T11:19:36;10.10;99.90
33093;DHT22;19456;46.104;12.908;2024-02-23T11:22:03;10.10;99.90
33093;DHT22;19456;46.104;12.908;2024-02-23T11:24:29;10.10;99.90
33093;DHT22;19456;46.104;12.908;2024-02-23T11:27:01;10.10;99.90
33093;DHT22;19456;46.104;12.908;2024-02-23T11:29:33;10.10;99.90
33093;DHT22;19456;46.104;12.908;2024-02-23T11:32:00;10.10;99.90
33093;DHT22;19456;46.104;12.908;2024-02-23T11:34:29;10.10;99.90
33093;DHT22;19456;46.104;12.908;2024-02-23T11:36:55;10.00;99.90
33093;DHT22;19456;46.104;12.908;2024-02-23T11:39:22;10.00;99.90
33093;DHT22;19456;46.104;12.908;2024-02-23T11:42:20;10.00;99.90
33093;DHT22;19456;46.104;12.908;2024-02-23T11:44:49;10.00;99.90
33093;DHT22;19456;46.104;12.908;2024-02-23T11:47:17;10.00;99.90
33093;DHT22;19456;46.104;12.908;2024-02-23T11:50:06;10.00;99.90
33093;DHT22;19456;46.104;12.908;2024-02-23T11:52:55;9.90;99.90
33093;DHT22;19456;46.104;12.908;2024-02-23T12:04:45;9.80;99.90
33093;DHT22;19456;46.104;12.908;2024-02-23T12:14:10;9.90;99.90
33093;DHT22;19456;46.104;12.908;2024-02-23T12:23:14;9.90;99.90
33093;DHT22;19456;46.104;12.908;2024-02-23T12:25:40;9.90;99.90
33093;DHT22;19456;46.104;12.908;2024-02-23T12:28:08;10.00;99.90
33093;DHT22;19456;46.104;12.908;2024-02-23T12:30:45;10.00;99.90
33093;DHT22;19456;46.104;12.908;2024-02-23T12:33:44;9.90;99.90
33093;DHT22;19456;46.104;12.908;2024-02-23T12:42:24;9.70;99.90
33093;DHT22;19456;46.104;12.908;2024-02-23T12:44:56;9.60;99.90
33093;DHT22;19456;46.104;12.908;2024-02-23T12:47:22;9.70;99.90
33093;DHT22;19456;46.104;12.908;2024-02-23T12:49:47;9.80;99.90
33093;DHT22;19456;46.104;12.908;2024-02-23T12:52:13;9.80;99.90
33093;DHT22;19456;46.104;12.908;2024-02-23T12:54:39;9.80;99.90
33093;DHT22;19456;46.104;12.908;2024-02-23T12:57:05;9.90;99.90
33093;DHT22;19456;46.104;12.908;2024-02-23T12:59:30;10.00;99.90
33093;DHT22;19456;46.104;12.908;2024-02-23T13:01:56;9.90;99.90
33093;DHT22;19456;46.104;12.908;2024-02-23T13:04:22;9.70;99.90
33093;DHT22;19456;46.104;12.908;2024-02-23T13:06:48;9.90;99.90
33093;DHT22;19456;46.104;12.908;2024-02-23T13:09:14;9.70;99.90
33093;DHT22;19456;46.104;12.908;2024-02-23T13:11:40;9.70;99.90
33093;DHT22;19456;46.104;12.908;2024-02-23T13:14:06;9.80;99.90
33093;DHT22;19456;46.104;12.908;2024-02-23T13:16:31;9.80;99.90
33093;DHT22;19456;46.104;12.908;2024-02-23T13:18:57;9.90;99.90
33093;DHT22;19456;46.104;12.908;2024-02-23T13:21:22;10.00;99.90
33093;DHT22;19456;46.104;12.908;2024-02-23T13:23:49;9.80;99.90
33093;DHT22;19456;46.104;12.908;2024-02-23T13:26:16;9.80;99.90
33093;DHT22;19456;46.104;12.908;2024-02-23T13:28:42;9.80;99.90
33093;DHT22;19456;46.104;12.908;2024-02-23T13:31:10;9.80;99.90
33093;DHT22;19456;46.104;12.908;2024-02-23T13:33:36;9.70;99.90
33093;DHT22;19456;46.104;12.908;2024-02-23T13:36:01;9.60;99.90
33093;DHT22;19456;46.104;12.908;2024-02-23T13:38:27;9.50;99.90
33093;DHT22;19456;46.104;12.908;2024-02-23T13:40:52;9.60;99.90
33093;DHT22;19456;46.104;12.908;2024-02-23T13:43:18;9.40;99.90
33093;DHT22;19456;46.104;12.908;2024-02-23T13:45:51;9.30;99.90
33093;DHT22;19456;46.104;12.908;2024-02-23T13:48:17;9.40;99.90
33093;DHT22;19456;46.104;12.908;2024-02-23T13:50:47;9.40;99.90
33093;DHT22;19456;46.104;12.908;2024-02-23T13:53:13;9.40;99.90
33093;DHT22;19456;46.104;12.908;2024-02-23T13:55:39;9.30;99.90
33093;DHT22;19456;46.104;12.908;2024-02-23T13:58:04;9.50;99.90
33093;DHT22;19456;46.104;12.908;2024-02-23T14:00:30;9.60;99.90
33093;DHT22;19456;46.104;12.908;2024-02-23T14:02:55;9.40;99.90
33093;DHT22;19456;46.104;12.908;2024-02-23T14:05:21;9.40;99.90
33093;DHT22;19456;46.104;12.908;2024-02-23T14:07:49;9.50;99.90
33093;DHT22;19456;46.104;12.908;2024-02-23T14:10:15;9.60;99.90
33093;DHT22;19456;46.104;12.908;2024-02-23T14:12:40;9.60;99.90
33093;DHT22;19456;46.104;12.908;2024-02-23T14:15:06;9.70;99.90
33093;DHT22;19456;46.104;12.908;2024-02-23T14:17:32;9.70;99.90
33093;DHT22;19456;46.104;12.908;2024-02-23T14:20:00;9.80;99.90
33093;DHT22;19456;46.104;12.908;2024-02-23T14:22:25;9.60;99.90
33093;DHT22;19456;46.104;12.908;2024-02-23T14:24:53;9.50;99.90
33093;DHT22;19456;46.104;12.908;2024-02-23T14:27:20;9.40;99.90
33093;DHT22;19456;46.104;12.908;2024-02-23T14:29:46;9.30;99.90
33093;DHT22;19456;46.104;12.908;2024-02-23T14:32:15;9.30;99.90
33093;DHT22;19456;46.104;12.908;2024-02-23T14:34:50;9.20;99.90
33093;DHT22;19456;46.104;12.908;2024-02-23T14:37:22;9.10;99.90
33093;DHT22;19456;46.104;12.908;2024-02-23T14:39:49;9.10;99.90
33093;DHT22;19456;46.104;12.908;2024-02-23T14:42:15;9.20;99.90
33093;DHT22;19456;46.104;12.908;2024-02-23T14:44:45;9.30;99.90
33093;DHT22;19456;46.104;12.908;2024-02-23T14:47:16;9.30;99.90
33093;DHT22;19456;46.104;12.908;2024-02-23T14:49:41;9.40;99.90
33093;DHT22;19456;46.104;12.908;2024-02-23T14:52:07;9.50;99.90
33093;DHT22;19456;46.104;12.908;2024-02-23T14:54:33;9.50;99.90
33093;DHT22;19456;46.104;12.908;2024-02-23T14:56:59;9.50;99.90
33093;DHT22;19456;46.104;12.908;2024-02-23T14:59:25;9.40;99.90
33093;DHT22;19456;46.104;12.908;2024-02-23T15:01:50;9.40;99.90
33093;DHT22;19456;46.104;12.908;2024-02-23T15:04:16;9.30;99.90
33093;DHT22;19456;46.104;12.908;2024-02-23T15:09:43;9.30;99.90
33093;DHT22;19456;46.104;12.908;2024-02-23T15:12:09;9.20;99.90
33093;DHT22;19456;46.104;12.908;2024-02-23T15:14:35;9.20;99.90
33093;DHT22;19456;46.104;12.908;2024-02-23T15:17:06;9.20;99.90
33093;DHT22;19456;46.104;12.908;2024-02-23T15:19:33;9.20;99.90
33093;DHT22;19456;46.104;12.908;2024-02-23T15:21:59;9.30;99.90
33093;DHT22;19456;46.104;12.908;2024-02-23T15:24:25;9.40;99.90
33093;DHT22;19456;46.104;12.908;2024-02-23T15:26:51;9.30;99.90
33093;DHT22;19456;46.104;12.908;2024-02-23T15:29:17;9.30;99.90
33093;DHT22;19456;46.104;12.908;2024-02-23T15:31:43;9.40;99.90
33093;DHT22;19456;46.104;12.908;2024-02-23T15:34:09;9.40;99.90
33093;DHT22;19456;46.104;12.908;2024-02-23T15:36:35;9.40;99.90
33093;DHT22;19456;46.104;12.908;2024-02-23T15:39:00;9.30;99.90
33093;DHT22;19456;46.104;12.908;2024-02-23T15:41:34;9.20;99.90
33093;DHT22;19456;46.104;12.908;2024-02-23T15:44:01;9.30;99.90
33093;DHT22;19456;46.104;12.908;2024-02-23T15:46:26;9.20;99.90
33093;DHT22;19456;46.104;12.908;2024-02-23T15:48:53;9.20;99.90
33093;DHT22;19456;46.104;12.908;2024-02-23T15:51:19;9.30;99.90
33093;DHT22;19456;46.104;12.908;2024-02-23T15:53:46;9.30;99.90
33093;DHT22;19456;46.104;12.908;2024-02-23T15:56:12;9.20;99.90
33093;DHT22;19456;46.104;12.908;2024-02-23T15:58:38;9.10;99.90
33093;DHT22;19456;46.104;12.908;2024-02-23T16:01:03;9.10;99.90